Time;durP1;ratioP1;P1;durP2;ratioP2;P2;SDS_P1;SDS_P2;PMS_P1;PMS_P2;Temp;Humidity;BMP_temperature;BMP_pressure;BME280_temperature;BME280_humidity;BME280_pressure;Samples;Min_cycle;Max_cycle;Signal;HPM_P1;HPM_P2
2023/08/21 00:00:53;;;;;;;;;;;;;;;-140.72;100.00;52549.13;6277946;22;19911;-68
2023/08/21 00:03:25;;;;;;;;;;;;;;;-140.72;97.71;52561.31;6278416;22;19911;-68
2023/08/21 00:05:50;;;;;;;;;;;;;;;-140.72;96.47;52557.25;6278466;22;20244;-68
2023/08/21 00:08:23;;;;;;;;;;;;;;;-140.72;100.00;52549.13;6278370;22;19918;-68
2023/08/21 00:10:48;;;;;;;;;;;;;;;-140.72;100.00;52593.78;6278503;22;19918;-68
2023/08/21 00:13:24;;;;;;;;;;;;;;;-140.72;100.00;52555.22;6278363;22;19911;-68
2023/08/21 00:15:49;;;;;;;;;;;;;;;-140.72;100.00;52565.38;6278479;22;19912;-68
2023/08/21 00:18:28;;;;;;;;;;;;;;;-140.72;100.00;52547.09;6276704;22;19919;-68
2023/08/21 00:20:53;;;;;;;;;;;;;;;-140.72;100.00;52559.28;6278024;22;20308;-69
2023/08/21 00:23:19;;;;;;;;;;;;;;;-140.72;100.00;52599.88;6278143;22;19943;-69
2023/08/21 00:25:47;;;;;;;;;;;;;;;-140.72;100.00;52541.03;6277926;22;19946;-68
2023/08/21 00:28:13;;;;;;;;;;;;;;;-140.72;100.00;52569.44;6277992;22;20031;-68
2023/08/21 00:30:41;;;;;;;;;;;;;;;-140.72;100.00;52551.16;6278789;22;19911;-68
2023/08/21 00:33:07;;;;;;;;;;;;;;;-140.72;100.00;52589.72;6279159;22;20038;-68
2023/08/21 00:35:32;;;;;;;;;;;;;;;-140.72;100.00;52549.13;6278506;22;20298;-68
2023/08/21 00:37:57;;;;;;;;;;;;;;;-140.72;100.00;52577.53;6278019;22;20312;-68
2023/08/21 00:40:23;;;;;;;;;;;;;;;-140.72;100.00;52636.38;6277963;22;20312;-67
2023/08/21 00:42:48;;;;;;;;;;;;;;;-140.72;100.00;52595.81;6278042;22;19911;-68
2023/08/21 00:45:13;;;;;;;;;;;;;;;-140.72;100.00;52589.72;6277939;22;19964;-68
2023/08/21 00:47:39;;;;;;;;;;;;;;;-140.72;100.00;52541.03;6278057;22;19986;-68
2023/08/21 00:50:06;;;;;;;;;;;;;;;-140.72;100.00;52577.53;6277646;22;20339;-67
2023/08/21 00:52:31;;;;;;;;;;;;;;;-140.72;100.00;52577.53;6278007;22;19911;-67
2023/08/21 00:54:57;;;;;;;;;;;;;;;-140.72;100.00;52561.31;6302244;22;19998;-67
2023/08/21 00:57:22;;;;;;;;;;;;;;;-140.72;100.00;52569.44;6277987;22;19911;-67
2023/08/21 00:59:48;;;;;;;;;;;;;;;-140.72;100.00;52593.78;6278249;22;19965;-67
2023/08/21 01:02:13;;;;;;;;;;;;;;;-140.72;100.00;52593.78;6276747;22;19939;-67
2023/08/21 01:04:38;;;;;;;;;;;;;;;-140.72;100.00;52591.75;6278040;22;19949;-68
2023/08/21 01:07:09;;;;;;;;;;;;;;;-140.72;100.00;52595.81;6277843;22;19926;-67
2023/08/21 01:09:54;;;;;;;;;;;;;;;-140.72;100.00;52589.72;6277341;22;19915;-68
2023/08/21 01:12:33;;;;;;;;;;;;;;;-140.72;100.00;52607.97;6277034;22;19911;-67
2023/08/21 01:15:00;;;;;;;;;;;;;;;-140.72;100.00;52541.03;6277877;22;19916;-67
2023/08/21 01:17:36;;;;;;;;;;;;;;;-140.72;100.00;52605.94;6277685;22;19918;-68
2023/08/21 01:20:02;;;;;;;;;;;;;;;-140.72;100.00;52589.72;6277236;22;19965;-67
2023/08/21 01:22:34;;;;;;;;;;;;;;;-140.72;100.00;52616.09;6277939;22;19912;-67
2023/08/21 01:25:00;;;;;;;;;;;;;;;-140.72;100.00;52577.53;6277797;22;19922;-67
2023/08/21 01:27:25;;;;;;;;;;;;;;;-140.72;100.00;52612.03;6277706;22;19994;-69
2023/08/21 01:29:50;;;;;;;;;;;;;;;-140.72;100.00;52589.72;6277876;22;19919;-68
2023/08/21 01:32:34;;;;;;;;;;;;;;;-140.72;100.00;52605.94;6275923;22;20083;-68
2023/08/21 01:35:00;;;;;;;;;;;;;;;-140.72;100.00;52561.31;6277284;22;19965;-68
2023/08/21 01:37:26;;;;;;;;;;;;;;;-140.72;100.00;52575.50;6277465;22;19911;-68
2023/08/21 01:39:51;;;;;;;;;;;;;;;-140.72;100.00;52581.59;6277237;22;19962;-68
2023/08/21 01:42:16;;;;;;;;;;;;;;;-140.72;100.00;52607.97;6277437;22;20332;-68
2023/08/21 01:44:41;;;;;;;;;;;;;;;-140.72;100.00;52563.34;6277439;22;19970;-68
2023/08/21 01:47:07;;;;;;;;;;;;;;;-140.72;100.00;52575.50;6277048;22;19911;-68
2023/08/21 01:49:32;;;;;;;;;;;;;;;-140.72;100.00;52597.84;6277542;22;20327;-68
2023/08/21 01:51:59;;;;;;;;;;;;;;;-140.72;100.00;52583.63;6277255;22;19915;-67
2023/08/21 01:54:25;;;;;;;;;;;;;;;-140.72;100.00;52589.72;6277412;22;20248;-68
2023/08/21 01:56:50;;;;;;;;;;;;;;;-140.72;100.00;52591.75;6277105;22;19911;-67
2023/08/21 01:59:16;;;;;;;;;;;;;;;-140.72;100.00;52599.88;6277144;22;19957;-68
2023/08/21 02:01:41;;;;;;;;;;;;;;;-140.72;100.00;52573.50;6276805;22;19918;-68
2023/08/21 02:04:06;;;;;;;;;;;;;;;-140.72;100.00;52551.16;6277170;22;19915;-68
2023/08/21 02:06:32;;;;;;;;;;;;;;;-140.72;100.00;52589.72;6301415;22;20320;-68
2023/08/21 02:08:57;;;;;;;;;;;;;;;-140.72;100.00;52585.66;6277298;22;19961;-69
2023/08/21 02:11:22;;;;;;;;;;;;;;;-140.72;100.00;52565.38;6276984;22;19911;-68
2023/08/21 02:13:47;;;;;;;;;;;;;;;-140.72;100.00;52597.84;6277226;22;19930;-68
2023/08/21 02:16:12;;;;;;;;;;;;;;;-140.72;100.00;52603.94;6276980;22;19912;-69
2023/08/21 02:18:38;;;;;;;;;;;;;;;-140.72;100.00;52585.66;6277104;22;19911;-68
2023/08/21 02:21:03;;;;;;;;;;;;;;;-140.72;100.00;52630.31;6276998;22;19994;-68
2023/08/21 02:23:31;;;;;;;;;;;;;;;-140.72;100.00;52618.13;6301361;22;20328;-68
2023/08/21 02:25:56;;;;;;;;;;;;;;;-140.72;100.00;52597.84;6275525;22;20352;-68
2023/08/21 02:28:22;;;;;;;;;;;;;;;-140.72;100.00;52567.41;6302118;22;19923;-68
2023/08/21 02:30:47;;;;;;;;;;;;;;;-140.72;100.00;52618.13;6278359;22;19918;-68
2023/08/21 02:33:21;;;;;;;;;;;;;;;-140.72;100.00;52585.66;6275578;22;20377;-68
2023/08/21 02:35:47;;;;;;;;;;;;;;;-140.72;100.00;52593.78;6276528;22;19950;-68
2023/08/21 02:38:12;;;;;;;;;;;;;;;-140.72;100.00;52549.13;6276291;22;19907;-69
2023/08/21 02:40:55;;;;;;;;;;;;;;;-140.72;100.00;52593.78;6273681;22;19994;-70
2023/08/21 02:43:20;;;;;;;;;;;;;;;-140.72;100.00;52622.19;6276732;22;20247;-69
2023/08/21 02:45:46;;;;;;;;;;;;;;;-140.72;100.00;52593.78;6276879;22;19911;-69
2023/08/21 02:48:11;;;;;;;;;;;;;;;-140.72;100.00;52577.53;6277011;22;20282;-68
2023/08/21 02:50:36;;;;;;;;;;;;;;;-140.72;100.00;52583.63;6277055;22;19922;-68
2023/08/21 02:53:01;;;;;;;;;;;;;;;-140.72;100.00;52622.19;6275680;22;19911;-68
2023/08/21 02:55:27;;;;;;;;;;;;;;;-140.72;100.00;52630.31;6276799;22;19937;-67
2023/08/21 02:57:52;;;;;;;;;;;;;;;-140.72;100.00;52565.38;6276719;22;19911;-68
2023/08/21 03:03:20;;;;;;;;;;;;;;;-140.72;100.00;52581.59;6277050;22;19918;-68
2023/08/21 03:05:45;;;;;;;;;;;;;;;-140.72;100.00;52601.91;6300776;22;20328;-68
2023/08/21 03:08:10;;;;;;;;;;;;;;;-140.72;100.00;52612.03;6276880;22;19911;-68
2023/08/21 03:13:57;;;;;;;;;;;;;;;-140.72;100.00;52599.88;6278760;22;19914;-68
2023/08/21 03:16:22;;;;;;;;;;;;;;;-140.72;100.00;52607.97;6277417;22;20236;-69
2023/08/21 03:18:57;;;;;;;;;;;;;;;-140.72;100.00;52626.25;6278772;22;19922;-69
2023/08/21 03:21:23;;;;;;;;;;;;;;;-140.72;100.00;52622.19;6302691;22;19912;-69
2023/08/21 03:23:50;;;;;;;;;;;;;;;-140.72;100.00;52593.78;6278890;22;19957;-69
2023/08/21 03:26:15;;;;;;;;;;;;;;;-140.72;100.00;52605.94;6278866;22;20328;-69
2023/08/21 03:28:40;;;;;;;;;;;;;;;-140.72;100.00;52634.38;6278575;22;19961;-69
2023/08/21 03:31:06;;;;;;;;;;;;;;;-140.72;100.00;52624.22;6279085;22;19915;-68
2023/08/21 03:33:31;;;;;;;;;;;;;;;-140.72;100.00;52640.44;6278833;22;19956;-67
2023/08/21 03:35:56;;;;;;;;;;;;;;;-140.72;100.00;52630.31;6278692;22;20251;-67
2023/08/21 03:38:21;;;;;;;;;;;;;;;-140.72;100.00;52610.00;6278580;22;20244;-68
2023/08/21 03:40:46;;;;;;;;;;;;;;;-140.72;100.00;52644.50;6278956;22;19920;-68
2023/08/21 03:43:12;;;;;;;;;;;;;;;-140.72;100.00;52605.94;6278969;22;19917;-68
2023/08/21 03:45:37;;;;;;;;;;;;;;;-140.72;100.00;52628.28;6278997;22;19911;-67
2023/08/21 03:48:02;;;;;;;;;;;;;;;-140.72;100.00;52648.56;6279285;22;19911;-68
2023/08/21 03:50:27;;;;;;;;;;;;;;;-140.72;100.00;52650.59;6278476;22;20329;-68
2023/08/21 03:52:53;;;;;;;;;;;;;;;-140.72;100.00;52624.22;6303122;22;20366;-68
2023/08/21 03:55:18;;;;;;;;;;;;;;;-140.72;100.00;52605.94;6277879;22;19911;-68
2023/08/21 03:57:43;;;;;;;;;;;;;;;-140.72;100.00;52618.13;6278753;22;20296;-68
2023/08/21 04:00:09;;;;;;;;;;;;;;;-140.72;100.00;52624.22;6278387;22;19919;-69
2023/08/21 04:02:34;;;;;;;;;;;;;;;-140.72;100.00;52569.44;6302376;22;19919;-68
2023/08/21 04:04:59;;;;;;;;;;;;;;;-140.72;100.00;52614.06;6302163;22;20351;-68
2023/08/21 04:07:24;;;;;;;;;;;;;;;-140.72;100.00;52626.25;6278629;22;19911;-68
2023/08/21 04:09:50;;;;;;;;;;;;;;;-140.72;100.00;52642.47;6278189;22;20225;-68
2023/08/21 04:12:15;;;;;;;;;;;;;;;-140.72;100.00;52561.31;6276815;22;20243;-67
2023/08/21 04:14:40;;;;;;;;;;;;;;;-140.72;100.00;52642.47;6277718;22;20041;-67
2023/08/21 04:17:20;;;;;;;;;;;;;;;-140.72;100.00;52614.06;6278070;22;19918;-68
2023/08/21 04:19:46;;;;;;;;;;;;;;;-140.72;100.00;52605.94;6277991;22;19960;-68
2023/08/21 04:22:19;;;;;;;;;;;;;;;-140.72;100.00;52587.69;6278220;22;19943;-67
2023/08/21 04:24:44;;;;;;;;;;;;;;;-140.72;100.00;52599.88;6278342;22;19926;-67
2023/08/21 04:27:10;;;;;;;;;;;;;;;-140.72;100.00;52642.47;6279625;22;20010;-68
2023/08/21 04:29:35;;;;;;;;;;;;;;;-140.72;100.00;52622.19;6280276;22;20228;-69
2023/08/21 04:32:00;;;;;;;;;;;;;;;-140.72;100.00;52662.78;6277973;22;20286;-68
2023/08/21 04:34:26;;;;;;;;;;;;;;;-140.72;100.00;52656.69;6301890;22;19915;-68
2023/08/21 04:36:52;;;;;;;;;;;;;;;-140.72;100.00;52640.44;6277771;22;19911;-69
2023/08/21 04:39:17;;;;;;;;;;;;;;;-140.72;100.00;52626.25;6279174;22;20241;-71
2023/08/21 04:41:44;;;;;;;;;;;;;;;-140.72;100.00;52638.41;6279092;22;19912;-72
2023/08/21 04:44:09;;;;;;;;;;;;;;;-140.72;100.00;52612.03;6278881;22;19911;-71
2023/08/21 04:46:35;;;;;;;;;;;;;;;-140.72;100.00;52636.38;6278845;22;20350;-71
2023/08/21 04:49:00;;;;;;;;;;;;;;;-140.72;100.00;52636.38;6278515;22;19918;-72
2023/08/21 04:51:25;;;;;;;;;;;;;;;-140.72;100.00;52626.25;6278351;22;19922;-73
2023/08/21 04:53:50;;;;;;;;;;;;;;;-140.72;100.00;52638.41;6277433;22;19962;-72
2023/08/21 04:56:16;;;;;;;;;;;;;;;-140.72;100.00;52650.59;6278656;22;20366;-71
2023/08/21 04:58:42;;;;;;;;;;;;;;;-140.72;100.00;52614.06;6278354;22;19911;-72
2023/08/21 05:01:18;;;;;;;;;;;;;;;-140.72;100.00;52642.47;6278184;22;19994;-72
2023/08/21 05:03:43;;;;;;;;;;;;;;;-140.72;100.00;52632.34;6278347;22;19964;-72
2023/08/21 05:06:09;;;;;;;;;;;;;;;-140.72;100.00;52614.06;6276565;22;19989;-72
2023/08/21 05:08:34;;;;;;;;;;;;;;;-140.72;100.00;52630.31;6276441;22;19918;-73
2023/08/21 05:10:59;;;;;;;;;;;;;;;-140.72;100.00;52646.53;6278559;22;19915;-70
2023/08/21 05:13:45;;;;;;;;;;;;;;;-140.72;100.00;52634.38;6278504;22;19912;-69
2023/08/21 05:16:10;;;;;;;;;;;;;;;-140.72;100.00;52630.31;6276755;22;19911;-70
2023/08/21 05:18:37;;;;;;;;;;;;;;;-140.72;100.00;52652.63;6278323;22;19934;-70
2023/08/21 05:21:04;;;;;;;;;;;;;;;-140.72;100.00;52628.28;6276042;22;19919;-72
2023/08/21 05:23:29;;;;;;;;;;;;;;;-140.72;100.00;52610.00;6278431;22;20312;-71
2023/08/21 05:25:54;;;;;;;;;;;;;;;-140.72;100.00;52616.09;6277440;22;19925;-71
2023/08/21 05:28:19;;;;;;;;;;;;;;;-140.72;100.00;52610.00;6276845;22;20282;-72
2023/08/21 05:30:46;;;;;;;;;;;;;;;-140.72;100.00;52610.00;6277672;22;19990;-73
2023/08/21 05:33:12;;;;;;;;;;;;;;;-140.72;100.00;52652.63;6276253;22;19934;-72
2023/08/21 05:35:37;;;;;;;;;;;;;;;-140.72;100.00;52595.81;6302241;22;20320;-73
2023/08/21 05:38:03;;;;;;;;;;;;;;;-140.72;100.00;52646.53;6278373;22;19926;-75
2023/08/21 05:40:28;;;;;;;;;;;;;;;-140.72;100.00;52614.06;6277257;22;19942;-69
2023/08/21 05:43:00;;;;;;;;;;;;;;;-140.72;100.00;52626.25;6276239;22;19950;-70
2023/08/21 05:45:27;;;;;;;;;;;;;;;-140.72;100.00;52632.34;6277668;22;19961;-68
2023/08/21 05:47:52;;;;;;;;;;;;;;;-140.72;100.00;52622.19;6277092;22;19919;-70
2023/08/21 05:50:19;;;;;;;;;;;;;;;-140.72;100.00;52634.38;6276534;22;19915;-70
2023/08/21 05:52:44;;;;;;;;;;;;;;;-140.72;100.00;52644.50;6277416;22;20007;-70
2023/08/21 05:55:10;;;;;;;;;;;;;;;-140.72;100.00;52607.97;6277486;22;19918;-70
2023/08/21 05:57:39;;;;;;;;;;;;;;;-140.72;100.00;52632.34;6276781;22;19912;-70
2023/08/21 06:00:08;;;;;;;;;;;;;;;-140.72;100.00;52601.91;6277276;22;19949;-70
2023/08/21 06:02:33;;;;;;;;;;;;;;;-140.72;100.00;52630.31;6275770;22;19984;-69
2023/08/21 06:04:58;;;;;;;;;;;;;;;-140.72;100.00;52585.66;6277024;22;20324;-70
2023/08/21 06:07:23;;;;;;;;;;;;;;;-140.72;100.00;52603.94;6277182;22;19917;-69
2023/08/21 06:09:49;;;;;;;;;;;;;;;-140.72;100.00;52603.94;6276606;22;19911;-68
2023/08/21 06:12:18;;;;;;;;;;;;;;;-140.72;100.00;52607.97;6301224;22;19919;-71
2023/08/21 06:14:48;;;;;;;;;;;;;;;-140.72;100.00;52603.94;6276931;22;19915;-68
2023/08/21 06:17:13;;;;;;;;;;;;;;;-140.72;100.00;52614.06;6276731;22;19911;-68
2023/08/21 06:19:38;;;;;;;;;;;;;;;-140.72;100.00;52585.66;6276231;22;20371;-68
2023/08/21 06:22:04;;;;;;;;;;;;;;;-140.72;100.00;52571.47;6273605;22;20316;-68
2023/08/21 06:24:29;;;;;;;;;;;;;;;-140.72;100.00;52581.59;6274212;22;19918;-68
2023/08/21 06:26:55;;;;;;;;;;;;;;;-140.72;100.00;52603.94;6275692;22;20226;-68
2023/08/21 06:29:20;;;;;;;;;;;;;;;-140.72;100.00;52583.63;6274285;22;19915;-69
2023/08/21 06:31:46;;;;;;;;;;;;;;;-140.72;100.00;52565.38;6298213;22;19911;-69
2023/08/21 06:34:11;;;;;;;;;;;;;;;-140.72;100.00;52571.47;6275180;22;19911;-69
2023/08/21 06:36:36;;;;;;;;;;;;;;;-140.72;100.00;52573.50;6276655;22;19916;-69
2023/08/21 06:39:01;;;;;;;;;;;;;;;-140.72;100.00;52559.28;6276594;22;19911;-69
2023/08/21 06:41:27;;;;;;;;;;;;;;;-140.72;100.00;52543.03;6274776;22;19911;-68
2023/08/21 06:43:52;;;;;;;;;;;;;;;-140.72;100.00;52549.13;6275737;22;20295;-69
2023/08/21 06:46:17;;;;;;;;;;;;;;;-140.72;100.00;52569.44;6276510;22;19911;-69
2023/08/21 06:48:43;;;;;;;;;;;;;;;-140.72;100.00;52545.06;6274799;22;19918;-68
2023/08/21 06:51:08;;;;;;;;;;;;;;;-140.72;100.00;52561.31;6276911;22;19911;-68
2023/08/21 06:53:34;;;;;;;;;;;;;;;-140.72;100.00;52553.19;6275780;22;20032;-70
2023/08/21 06:55:59;;;;;;;;;;;;;;;-140.72;100.00;52504.50;6273892;22;19912;-69
2023/08/21 06:58:24;;;;;;;;;;;;;;;-140.72;100.00;52551.16;6274365;22;19938;-69
2023/08/21 07:00:49;;;;;;;;;;;;;;;-140.72;100.00;52551.16;6301436;22;19915;-69
2023/08/21 07:03:14;;;;;;;;;;;;;;;-140.72;100.00;52516.66;6273478;22;19945;-69
2023/08/21 07:05:40;;;;;;;;;;;;;;;-140.72;100.00;52524.78;6298339;22;19943;-77
2023/08/21 07:08:05;;;;;;;;;;;;;;;-140.72;100.00;52524.78;6270983;22;19911;-69
2023/08/21 07:10:35;;;;;;;;;;;;;;;-140.72;100.00;52488.25;6299630;22;19996;-69
2023/08/21 07:13:00;;;;;;;;;;;;;;;-140.72;100.00;52559.28;6273646;22;19915;-74
2023/08/21 07:15:43;;;;;;;;;;;;;;;-140.72;100.00;52516.66;6274095;22;19929;-73
2023/08/21 07:18:08;;;;;;;;;;;;;;;-140.72;100.00;52561.31;6276364;22;19911;-73
2023/08/21 07:20:34;;;;;;;;;;;;;;;-140.72;100.00;52518.69;6276759;22;19958;-74
2023/08/21 07:22:59;;;;;;;;;;;;;;;-140.72;100.00;52528.84;6276967;22;19927;-74
2023/08/21 07:25:25;;;;;;;;;;;;;;;-140.72;100.00;52528.84;6278953;22;19911;-74
2023/08/21 07:27:52;;;;;;;;;;;;;;;-140.72;100.00;52506.53;6277375;22;19916;-74
2023/08/21 07:30:18;;;;;;;;;;;;;;;-140.72;100.00;52504.50;6275473;22;19915;-74
2023/08/21 07:32:43;;;;;;;;;;;;;;;-140.72;100.00;52492.31;6299182;22;19922;-73
2023/08/21 07:35:08;;;;;;;;;;;;;;;-140.72;100.00;52490.28;6273197;22;19986;-73
2023/08/21 07:37:34;;;;;;;;;;;;;;;-140.72;97.35;52516.66;6276017;22;19973;-74
2023/08/21 07:39:59;;;;;;;;;;;;;;;-140.72;78.64;52482.16;6274614;22;19953;-74
2023/08/21 07:42:24;;;;;;;;;;;;;;;-140.72;75.84;52532.91;6274163;22;19920;-73
2023/08/21 07:44:49;;;;;;;;;;;;;;;-140.72;77.33;52492.31;6276307;22;19911;-70
2023/08/21 07:47:15;;;;;;;;;;;;;;;-140.72;73.20;52488.25;6274550;22;19915;-69
2023/08/21 07:49:40;;;;;;;;;;;;;;;-140.72;66.39;52484.19;6271559;22;19938;-69
2023/08/21 07:52:06;;;;;;;;;;;;;;;-140.72;62.01;52484.19;6298510;22;19931;-69
2023/08/21 07:54:31;;;;;;;;;;;;;;;-140.72;25.60;52476.09;6271937;22;19915;-70
2023/08/21 07:56:56;;;;;;;;;;;;;;;-140.72;20.03;52478.13;6295053;22;20271;-69
2023/08/21 07:59:22;;;;;;;;;;;;;;;-140.72;15.67;52482.16;6269292;22;19915;-70
2023/08/21 08:01:47;;;;;;;;;;;;;;;-140.72;14.67;52411.16;6271059;22;20324;-69
2023/08/21 08:04:12;;;;;;;;;;;;;;;-140.72;7.40;52480.16;6269480;22;19915;-69
2023/08/21 08:06:39;;;;;;;;;;;;;;;-140.72;4.33;52470.00;6266013;22;20294;-68
2023/08/21 08:09:04;;;;;;;;;;;;;;;-140.72;3.06;52447.69;6276634;22;19937;-69
2023/08/21 08:11:29;;;;;;;;;;;;;;;-140.72;1.94;52449.72;6275554;22;19965;-69
2023/08/21 08:13:55;;;;;;;;;;;;;;;-140.72;0.06;52435.50;6273691;22;19919;-70
2023/08/21 08:16:20;;;;;;;;;;;;;;;-140.72;0.00;52451.72;6269513;22;19918;-71
2023/08/21 08:18:46;;;;;;;;;;;;;;;-140.72;0.00;52455.78;6272374;22;20005;-70
2023/08/21 08:21:11;;;;;;;;;;;;;;;-140.72;0.00;52439.56;6272486;22;19915;-69
2023/08/21 08:23:36;;;;;;;;;;;;;;;-140.72;0.00;52415.22;6271001;22;19923;-69
2023/08/21 08:26:02;;;;;;;;;;;;;;;-140.72;0.00;52425.34;6273637;22;20271;-69
2023/08/21 08:28:27;;;;;;;;;;;;;;;-140.72;0.00;52415.22;6270250;22;20245;-70
2023/08/21 08:30:52;;;;;;;;;;;;;;;-140.72;0.00;52429.41;6268095;22;19973;-69
2023/08/21 08:33:17;;;;;;;;;;;;;;;-140.72;0.00;52364.47;6268866;22;20002;-69
2023/08/21 08:35:43;;;;;;;;;;;;;;;-140.72;0.00;52388.84;6270637;22;19915;-69
2023/08/21 08:38:08;;;;;;;;;;;;;;;-140.72;0.00;52382.75;6272156;22;19911;-68
2023/08/21 08:40:37;;;;;;;;;;;;;;;-140.72;0.00;52376.66;6276639;22;19911;-67
2023/08/21 08:43:02;;;;;;;;;;;;;;;-140.72;0.00;52370.56;6275562;22;19956;-67
2023/08/21 08:45:31;;;;;;;;;;;;;;;-140.72;0.00;52344.19;6275535;22;20379;-69
2023/08/21 08:47:58;;;;;;;;;;;;;;;-140.72;0.00;52325.94;6274015;22;19926;-68
2023/08/21 08:50:25;;;;;;;;;;;;;;;-140.72;0.00;52303.59;6272433;22;19916;-70
2023/08/21 08:52:50;;;;;;;;;;;;;;;-140.72;0.00;52281.28;6275963;22;19915;-69
2023/08/21 08:55:16;;;;;;;;;;;;;;;-140.72;0.00;52261.00;6275984;22;19915;-70
2023/08/21 08:57:41;;;;;;;;;;;;;;;-140.72;0.00;52261.00;6274763;22;19918;-70
2023/08/21 09:00:06;;;;;;;;;;;;;;;-140.72;0.00;52275.19;6297472;22;20306;-69
2023/08/21 09:02:32;;;;;;;;;;;;;;;-140.72;0.00;52240.72;6275373;22;20267;-70
2023/08/21 09:04:58;;;;;;;;;;;;;;;-140.72;0.00;52261.00;6274928;22;19996;-69
2023/08/21 09:07:23;;;;;;;;;;;;;;;-140.72;0.00;52234.63;6299402;22;20332;-70
2023/08/21 09:09:50;;;;;;;;;;;;;;;-140.72;0.00;52200.13;6274773;22;19918;-70
2023/08/21 09:12:16;;;;;;;;;;;;;;;-140.72;0.00;52183.91;6275104;22;19915;-69
2023/08/21 09:14:42;;;;;;;;;;;;;;;-140.72;0.00;52267.09;6275770;22;19919;-69
2023/08/21 09:17:07;;;;;;;;;;;;;;;-140.72;0.00;52261.00;6276347;22;20324;-70
2023/08/21 09:19:33;;;;;;;;;;;;;;;-140.72;0.00;52206.22;6274862;22;20320;-69
2023/08/21 09:21:58;;;;;;;;;;;;;;;-140.72;0.00;52185.94;6277718;22;19919;-69
2023/08/21 09:24:23;;;;;;;;;;;;;;;-140.72;0.00;52155.50;6277699;22;20309;-69
2023/08/21 09:26:49;;;;;;;;;;;;;;;-140.72;0.00;52179.84;6278386;22;20244;-69
2023/08/21 09:29:15;;;;;;;;;;;;;;;-140.72;0.00;52173.75;6277479;22;20277;-69
2023/08/21 09:31:40;;;;;;;;;;;;;;;-140.72;0.00;52159.56;6274933;22;19938;-69
2023/08/21 09:34:05;;;;;;;;;;;;;;;-140.72;0.00;52127.09;6276832;22;19915;-70
2023/08/21 09:36:31;;;;;;;;;;;;;;;-140.72;0.00;52098.69;6277654;22;20318;-70
2023/08/21 09:38:57;;;;;;;;;;;;;;;-140.72;0.00;52086.50;6277665;22;19915;-70
2023/08/21 09:41:38;;;;;;;;;;;;;;;-140.72;0.00;52082.44;6276954;22;19946;-70
2023/08/21 09:44:04;;;;;;;;;;;;;;;-140.72;0.00;52090.56;6278283;22;19918;-70
2023/08/21 09:46:29;;;;;;;;;;;;;;;-140.72;0.00;52125.06;6277988;22;19912;-69
2023/08/21 09:49:03;;;;;;;;;;;;;;;-140.72;0.00;52066.22;6277813;22;19922;-69
2023/08/21 09:51:28;;;;;;;;;;;;;;;-140.72;0.00;52143.31;6277628;22;19937;-69
2023/08/21 09:54:04;;;;;;;;;;;;;;;-140.72;0.00;52143.31;6277068;22;19938;-68
2023/08/21 09:56:29;;;;;;;;;;;;;;;-140.72;0.00;52147.38;6275632;22;20004;-70
2023/08/21 09:58:55;;;;;;;;;;;;;;;-140.72;0.00;52204.19;6277365;22;20320;-69
2023/08/21 10:01:21;;;;;;;;;;;;;;;-140.72;0.00;52074.34;6275746;22;20184;-69
2023/08/21 10:03:50;;;;;;;;;;;;;;;-140.72;0.00;52123.03;6273799;22;19915;-69
2023/08/21 10:06:16;;;;;;;;;;;;;;;-140.72;0.00;52082.44;6269875;22;19915;-69
2023/08/21 10:08:44;;;;;;;;;;;;;;;-140.72;0.00;52072.31;6268309;22;19922;-69
2023/08/21 10:11:09;;;;;;;;;;;;;;;-140.72;0.00;52129.13;6272289;22;20003;-69
2023/08/21 10:13:37;;;;;;;;;;;;;;;-140.72;0.00;52070.28;6268568;22;19947;-69
2023/08/21 10:16:02;;;;;;;;;;;;;;;-140.72;0.00;52013.47;6270050;22;20044;-70
2023/08/21 10:18:32;;;;;;;;;;;;;;;-140.72;0.00;52013.47;6274724;22;19935;-70
2023/08/21 10:21:09;;;;;;;;;;;;;;;-140.72;0.00;51960.72;6268979;22;19919;-70
2023/08/21 10:23:36;;;;;;;;;;;;;;;-140.72;0.00;52045.94;6261383;22;19915;-70
2023/08/21 10:26:04;;;;;;;;;;;;;;;-140.72;0.00;52021.56;6266547;22;19915;-70
2023/08/21 10:28:48;;;;;;;;;;;;;;;-140.72;0.00;51948.53;6265664;22;19919;-70
2023/08/21 10:31:34;;;;;;;;;;;;;;;-140.72;0.00;51928.25;6268871;22;19911;-70
2023/08/21 10:34:01;;;;;;;;;;;;;;;-140.72;0.00;51966.81;6272115;22;19922;-69
2023/08/21 10:36:39;;;;;;;;;;;;;;;-140.72;0.00;51970.84;6267710;22;19969;-69
2023/08/21 10:39:04;;;;;;;;;;;;;;;-140.72;0.00;51989.13;6269379;22;19911;-69
2023/08/21 10:41:29;;;;;;;;;;;;;;;-140.72;0.00;52037.81;6267918;22;20399;-69
2023/08/21 10:43:55;;;;;;;;;;;;;;;-140.72;0.00;51940.41;6295205;22;19981;-69
2023/08/21 10:46:20;;;;;;;;;;;;;;;-140.72;0.00;52033.75;6270025;22;19994;-69
2023/08/21 10:48:45;;;;;;;;;;;;;;;-140.72;0.00;51952.59;6266944;22;19926;-69
2023/08/21 10:51:13;;;;;;;;;;;;;;;-140.72;0.00;51970.84;6266517;22;19915;-69
2023/08/21 10:53:39;;;;;;;;;;;;;;;-140.72;0.00;51895.78;6264034;22;19915;-69
2023/08/21 10:56:05;;;;;;;;;;;;;;;-140.72;0.00;51907.97;6266475;22;20380;-70
2023/08/21 10:58:34;;;;;;;;;;;;;;;-140.72;0.00;52094.63;6268248;22;19919;-70
2023/08/21 11:00:59;;;;;;;;;;;;;;;-140.72;0.00;51978.97;6267673;22;19934;-70
2023/08/21 11:03:25;;;;;;;;;;;;;;;-140.72;0.00;51968.81;6271718;22;20324;-74
2023/08/21 11:06:00;;;;;;;;;;;;;;;-140.72;0.00;51989.13;6268274;22;19919;-76
2023/08/21 11:08:25;;;;;;;;;;;;;;;-140.72;0.00;51828.84;6271181;22;20548;-72
2023/08/21 11:10:50;;;;;;;;;;;;;;;-140.72;0.00;51786.22;6267173;22;20329;-72
2023/08/21 11:13:15;;;;;;;;;;;;;;;-140.72;0.00;51763.91;6273694;22;19953;-71
2023/08/21 11:15:41;;;;;;;;;;;;;;;-140.72;0.00;51717.25;6276196;22;19961;-71
2023/08/21 11:18:06;;;;;;;;;;;;;;;-140.72;0.00;51696.97;6274247;22;19915;-71
2023/08/21 11:20:32;;;;;;;;;;;;;;;-140.72;0.00;51680.72;6274159;22;20356;-71
2023/08/21 11:22:58;;;;;;;;;;;;;;;-140.72;0.00;51757.81;6274824;22;19915;-72
2023/08/21 11:25:23;;;;;;;;;;;;;;;-140.72;0.00;51883.63;6276995;22;19911;-78
2023/08/21 11:27:49;;;;;;;;;;;;;;;-140.72;0.00;51966.81;6279008;22;19915;-77
2023/08/21 11:30:14;;;;;;;;;;;;;;;-140.72;0.00;51968.81;6276950;22;19922;-77
2023/08/21 11:32:40;;;;;;;;;;;;;;;-140.72;0.00;51956.66;6277073;22;19916;-77
2023/08/21 11:35:05;;;;;;;;;;;;;;;-140.72;0.00;51851.16;6276790;22;19911;-77
2023/08/21 11:37:30;;;;;;;;;;;;;;;-140.72;0.00;51759.84;6295826;22;19915;-77
2023/08/21 11:39:57;;;;;;;;;;;;;;;-140.72;0.00;51723.34;6272288;22;19923;-77
2023/08/21 11:42:32;;;;;;;;;;;;;;;-140.72;0.00;51723.34;6275073;22;19915;-76
2023/08/21 11:44:58;;;;;;;;;;;;;;;-140.72;0.00;51668.56;6270340;22;19990;-76
2023/08/21 11:47:29;;;;;;;;;;;;;;;-140.72;0.00;51830.88;6269118;22;20291;-76
2023/08/21 11:49:54;;;;;;;;;;;;;;;-140.72;0.00;51784.19;6276001;22;20269;-76
2023/08/21 11:52:21;;;;;;;;;;;;;;;-140.72;0.00;51737.53;6276349;22;20001;-76
2023/08/21 11:54:50;;;;;;;;;;;;;;;-140.72;0.00;51735.50;6277227;22;19916;-76
2023/08/21 11:57:15;;;;;;;;;;;;;;;-140.72;0.00;51709.13;6276997;22;19992;-77
2023/08/21 11:59:41;;;;;;;;;;;;;;;-140.72;0.00;51717.25;6272525;22;19993;-72
2023/08/21 12:02:25;;;;;;;;;;;;;;;-140.72;0.00;51696.97;6272963;22;19915;-71
2023/08/21 12:04:54;;;;;;;;;;;;;;;-140.72;0.00;51717.25;6269389;22;19915;-71
2023/08/21 12:07:19;;;;;;;;;;;;;;;-140.72;0.00;51656.38;6269637;22;19915;-75
2023/08/21 12:09:51;;;;;;;;;;;;;;;-140.72;0.00;51621.91;6269334;22;19915;-74
2023/08/21 12:12:16;;;;;;;;;;;;;;;-140.72;0.00;51597.56;6267545;22;20018;-72
2023/08/21 12:14:41;;;;;;;;;;;;;;;-140.72;0.00;51534.66;6263814;22;19915;-71
2023/08/21 12:17:07;;;;;;;;;;;;;;;-140.72;0.00;51548.88;6266824;22;19915;-71
2023/08/21 12:19:32;;;;;;;;;;;;;;;-140.72;0.00;51563.06;6263355;22;19918;-72
2023/08/21 12:21:58;;;;;;;;;;;;;;;-140.72;0.00;51587.41;6262895;22;19958;-72
2023/08/21 12:24:23;;;;;;;;;;;;;;;-140.72;0.00;51591.47;6265628;22;19919;-72
2023/08/21 12:26:48;;;;;;;;;;;;;;;-140.72;0.00;51567.13;6290880;22;19911;-71
2023/08/21 12:29:14;;;;;;;;;;;;;;;-140.72;0.00;51638.13;6260870;22;19945;-71